sensor_id;sensor_type;location;lat;lon;timestamp;pressure;altitude;pressure_sealevel;temperature;humidity
50065;BME280;64524;47.848;-122.338;2022-12-07T00:01:45;101836.17;;;6.50;100.00
50065;BME280;64524;47.848;-122.338;2022-12-07T00:04:17;101838.46;;;6.48;100.00
50065;BME280;64524;47.848;-122.338;2022-12-07T00:06:50;101841.00;;;6.44;100.00
50065;BME280;64524;47.848;-122.338;2022-12-07T00:09:20;101841.15;;;6.39;100.00
50065;BME280;64524;47.848;-122.338;2022-12-07T00:11:50;101839.84;;;6.33;100.00
50065;BME280;64524;47.848;-122.338;2022-12-07T00:14:20;101841.13;;;6.28;100.00
50065;BME280;64524;47.848;-122.338;2022-12-07T00:16:52;101842.00;;;6.21;100.00
50065;BME280;64524;47.848;-122.338;2022-12-07T00:19:21;101844.40;;;6.17;100.00
50065;BME280;64524;47.848;-122.338;2022-12-07T00:21:49;101839.60;;;6.13;100.00
50065;BME280;64524;47.848;-122.338;2022-12-07T00:24:18;101841.52;;;6.10;100.00
50065;BME280;64524;47.848;-122.338;2022-12-07T00:26:47;101843.20;;;6.06;100.00
50065;BME280;64524;47.848;-122.338;2022-12-07T00:29:20;101842.35;;;6.03;100.00
50065;BME280;64524;47.848;-122.338;2022-12-07T00:31:49;101844.41;;;5.99;100.00
50065;BME280;64524;47.848;-122.338;2022-12-07T00:34:20;101845.79;;;5.95;100.00
50065;BME280;64524;47.848;-122.338;2022-12-07T00:36:49;101846.40;;;5.91;100.00
50065;BME280;64524;47.848;-122.338;2022-12-07T00:39:18;101844.19;;;5.88;100.00
50065;BME280;64524;47.848;-122.338;2022-12-07T00:41:47;101842.95;;;5.84;100.00
50065;BME280;64524;47.848;-122.338;2022-12-07T00:44:16;101844.40;;;5.78;100.00
50065;BME280;64524;47.848;-122.338;2022-12-07T00:46:45;101851.36;;;5.73;100.00
50065;BME280;64524;47.848;-122.338;2022-12-07T00:49:14;101849.02;;;5.67;100.00
50065;BME280;64524;47.848;-122.338;2022-12-07T00:51:43;101849.06;;;5.61;100.00
50065;BME280;64524;47.848;-122.338;2022-12-07T00:54:11;101854.11;;;5.56;100.00
50065;BME280;64524;47.848;-122.338;2022-12-07T00:56:40;101854.06;;;5.51;100.00
50065;BME280;64524;47.848;-122.338;2022-12-07T00:59:12;101859.09;;;5.49;100.00
50065;BME280;64524;47.848;-122.338;2022-12-07T01:01:44;101857.95;;;5.43;100.00
50065;BME280;64524;47.848;-122.338;2022-12-07T01:04:13;101859.42;;;5.38;100.00
50065;BME280;64524;47.848;-122.338;2022-12-07T01:06:42;101857.00;;;5.34;100.00
50065;BME280;64524;47.848;-122.338;2022-12-07T01:09:11;101860.46;;;5.32;100.00
50065;BME280;64524;47.848;-122.338;2022-12-07T01:11:39;101859.65;;;5.29;100.00
50065;BME280;64524;47.848;-122.338;2022-12-07T01:14:08;101860.23;;;5.27;100.00
50065;BME280;64524;47.848;-122.338;2022-12-07T01:16:38;101859.61;;;5.25;100.00
50065;BME280;64524;47.848;-122.338;2022-12-07T01:19:08;101860.64;;;5.22;100.00
50065;BME280;64524;47.848;-122.338;2022-12-07T01:21:36;101860.61;;;5.18;100.00
50065;BME280;64524;47.848;-122.338;2022-12-07T01:24:09;101865.88;;;5.13;100.00
50065;BME280;64524;47.848;-122.338;2022-12-07T01:26:37;101864.64;;;5.10;100.00
50065;BME280;64524;47.848;-122.338;2022-12-07T01:29:06;101868.10;;;5.07;100.00
50065;BME280;64524;47.848;-122.338;2022-12-07T01:31:35;101872.00;;;5.02;100.00
50065;BME280;64524;47.848;-122.338;2022-12-07T01:34:03;101877.73;;;5.00;100.00
50065;BME280;64524;47.848;-122.338;2022-12-07T01:36:35;101877.70;;;5.00;100.00
50065;BME280;64524;47.848;-122.338;2022-12-07T01:39:05;101879.86;;;5.02;100.00
50065;BME280;64524;47.848;-122.338;2022-12-07T01:41:37;101882.84;;;5.03;100.00
50065;BME280;64524;47.848;-122.338;2022-12-07T01:44:19;101883.39;;;5.04;100.00
50065;BME280;64524;47.848;-122.338;2022-12-07T01:46:53;101881.80;;;5.06;100.00
50065;BME280;64524;47.848;-122.338;2022-12-07T01:49:26;101876.59;;;5.08;100.00
50065;BME280;64524;47.848;-122.338;2022-12-07T01:54:57;101877.85;;;5.09;100.00
50065;BME280;64524;47.848;-122.338;2022-12-07T01:57:28;101882.92;;;5.11;100.00
50065;BME280;64524;47.848;-122.338;2022-12-07T01:59:58;101883.41;;;5.14;100.00
50065;BME280;64524;47.848;-122.338;2022-12-07T02:02:32;101885.34;;;5.14;100.00
50065;BME280;64524;47.848;-122.338;2022-12-07T02:05:03;101883.59;;;5.14;100.00
50065;BME280;64524;47.848;-122.338;2022-12-07T02:07:36;101887.55;;;5.14;100.00
50065;BME280;64524;47.848;-122.338;2022-12-07T02:10:20;101886.17;;;5.14;100.00
50065;BME280;64524;47.848;-122.338;2022-12-07T02:13:01;101882.30;;;5.12;100.00
50065;BME280;64524;47.848;-122.338;2022-12-07T02:19:02;101873.75;;;5.13;100.00
50065;BME280;64524;47.848;-122.338;2022-12-07T02:29:40;101863.55;;;5.08;100.00
50065;BME280;64524;47.848;-122.338;2022-12-07T02:40:17;101875.98;;;5.00;100.00
50065;BME280;64524;47.848;-122.338;2022-12-07T02:42:51;101881.48;;;5.00;100.00
50065;BME280;64524;47.848;-122.338;2022-12-07T02:45:46;101879.45;;;5.00;100.00
50065;BME280;64524;47.848;-122.338;2022-12-07T02:48:17;101883.02;;;5.00;100.00
50065;BME280;64524;47.848;-122.338;2022-12-07T02:50:53;101888.05;;;5.00;100.00
50065;BME280;64524;47.848;-122.338;2022-12-07T02:53:38;101889.48;;;5.02;100.00
50065;BME280;64524;47.848;-122.338;2022-12-07T03:18:30;101875.74;;;5.22;100.00
50065;BME280;64524;47.848;-122.338;2022-12-07T03:21:03;101874.98;;;5.24;100.00
50065;BME280;64524;47.848;-122.338;2022-12-07T03:23:34;101876.05;;;5.24;100.00
50065;BME280;64524;47.848;-122.338;2022-12-07T03:26:04;101879.18;;;5.25;100.00
50065;BME280;64524;47.848;-122.338;2022-12-07T03:28:38;101880.80;;;5.26;100.00
50065;BME280;64524;47.848;-122.338;2022-12-07T03:31:38;101882.27;;;5.28;100.00
50065;BME280;64524;47.848;-122.338;2022-12-07T03:36:55;101888.86;;;5.32;100.00
50065;BME280;64524;47.848;-122.338;2022-12-07T03:40:02;101887.23;;;5.34;100.00
50065;BME280;64524;47.848;-122.338;2022-12-07T03:42:32;101889.91;;;5.36;100.00
50065;BME280;64524;47.848;-122.338;2022-12-07T03:45:02;101890.30;;;5.37;100.00
50065;BME280;64524;47.848;-122.338;2022-12-07T03:47:54;101884.02;;;5.38;100.00
50065;BME280;64524;47.848;-122.338;2022-12-07T03:50:41;101885.23;;;5.38;100.00
50065;BME280;64524;47.848;-122.338;2022-12-07T03:53:18;101887.16;;;5.39;100.00
50065;BME280;64524;47.848;-122.338;2022-12-07T03:55:48;101888.69;;;5.39;100.00
50065;BME280;64524;47.848;-122.338;2022-12-07T03:58:19;101891.27;;;5.39;100.00
50065;BME280;64524;47.848;-122.338;2022-12-07T04:00:50;101887.84;;;5.39;100.00
50065;BME280;64524;47.848;-122.338;2022-12-07T04:03:18;101889.88;;;5.39;100.00
50065;BME280;64524;47.848;-122.338;2022-12-07T04:05:47;101891.79;;;5.39;100.00
50065;BME280;64524;47.848;-122.338;2022-12-07T04:08:16;101895.41;;;5.40;100.00
50065;BME280;64524;47.848;-122.338;2022-12-07T04:10:45;101902.10;;;5.40;100.00
50065;BME280;64524;47.848;-122.338;2022-12-07T04:13:13;101903.97;;;5.39;100.00
50065;BME280;64524;47.848;-122.338;2022-12-07T04:15:42;101904.49;;;5.39;100.00
50065;BME280;64524;47.848;-122.338;2022-12-07T04:18:10;101909.40;;;5.41;100.00
50065;BME280;64524;47.848;-122.338;2022-12-07T04:20:39;101910.17;;;5.43;100.00
50065;BME280;64524;47.848;-122.338;2022-12-07T04:23:11;101911.97;;;5.44;100.00
50065;BME280;64524;47.848;-122.338;2022-12-07T04:25:40;101916.73;;;5.46;100.00
50065;BME280;64524;47.848;-122.338;2022-12-07T04:28:09;101915.64;;;5.49;100.00
50065;BME280;64524;47.848;-122.338;2022-12-07T04:30:37;101920.27;;;5.52;100.00
50065;BME280;64524;47.848;-122.338;2022-12-07T04:33:06;101922.34;;;5.56;100.00
50065;BME280;64524;47.848;-122.338;2022-12-07T04:35:36;101924.84;;;5.57;100.00
50065;BME280;64524;47.848;-122.338;2022-12-07T04:38:05;101924.58;;;5.59;100.00
50065;BME280;64524;47.848;-122.338;2022-12-07T04:40:34;101922.98;;;5.62;100.00
50065;BME280;64524;47.848;-122.338;2022-12-07T04:43:03;101921.88;;;5.63;100.00
50065;BME280;64524;47.848;-122.338;2022-12-07T04:45:32;101919.44;;;5.66;100.00
50065;BME280;64524;47.848;-122.338;2022-12-07T04:48:00;101916.43;;;5.68;100.00
50065;BME280;64524;47.848;-122.338;2022-12-07T04:50:29;101917.84;;;5.68;100.00
50065;BME280;64524;47.848;-122.338;2022-12-07T04:52:57;101922.32;;;5.68;100.00
50065;BME280;64524;47.848;-122.338;2022-12-07T04:55:26;101927.30;;;5.69;100.00
50065;BME280;64524;47.848;-122.338;2022-12-07T04:57:54;101924.90;;;5.68;100.00
50065;BME280;64524;47.848;-122.338;2022-12-07T05:00:23;101921.50;;;5.69;100.00
50065;BME280;64524;47.848;-122.338;2022-12-07T05:02:51;101927.38;;;5.70;100.00
50065;BME280;64524;47.848;-122.338;2022-12-07T05:05:20;101927.23;;;5.70;100.00
50065;BME280;64524;47.848;-122.338;2022-12-07T05:07:49;101932.21;;;5.71;100.00
50065;BME280;64524;47.848;-122.338;2022-12-07T05:10:17;101929.75;;;5.69;100.00
50065;BME280;64524;47.848;-122.338;2022-12-07T05:12:46;101935.08;;;5.69;100.00
50065;BME280;64524;47.848;-122.338;2022-12-07T05:15:15;101932.08;;;5.68;100.00
50065;BME280;64524;47.848;-122.338;2022-12-07T05:17:44;101930.96;;;5.66;100.00
50065;BME280;64524;47.848;-122.338;2022-12-07T05:20:12;101934.50;;;5.64;100.00
50065;BME280;64524;47.848;-122.338;2022-12-07T05:22:41;101934.29;;;5.64;100.00
50065;BME280;64524;47.848;-122.338;2022-12-07T05:25:09;101937.85;;;5.63;100.00
50065;BME280;64524;47.848;-122.338;2022-12-07T05:27:38;101940.21;;;5.62;100.00
50065;BME280;64524;47.848;-122.338;2022-12-07T05:30:07;101943.26;;;5.61;100.00
50065;BME280;64524;47.848;-122.338;2022-12-07T05:32:36;101942.59;;;5.62;100.00
50065;BME280;64524;47.848;-122.338;2022-12-07T05:35:05;101943.34;;;5.63;100.00
50065;BME280;64524;47.848;-122.338;2022-12-07T05:37:33;101946.79;;;5.63;100.00
50065;BME280;64524;47.848;-122.338;2022-12-07T05:40:02;101947.33;;;5.63;100.00
50065;BME280;64524;47.848;-122.338;2022-12-07T05:42:31;101944.38;;;5.63;100.00
50065;BME280;64524;47.848;-122.338;2022-12-07T05:45:00;101944.90;;;5.63;100.00
50065;BME280;64524;47.848;-122.338;2022-12-07T05:47:28;101946.26;;;5.63;100.00
50065;BME280;64524;47.848;-122.338;2022-12-07T05:49:57;101947.84;;;5.63;100.00
50065;BME280;64524;47.848;-122.338;2022-12-07T05:52:26;101950.52;;;5.62;100.00
50065;BME280;64524;47.848;-122.338;2022-12-07T05:54:54;101953.58;;;5.61;100.00
50065;BME280;64524;47.848;-122.338;2022-12-07T05:57:23;101957.27;;;5.60;100.00
50065;BME280;64524;47.848;-122.338;2022-12-07T05:59:52;101958.11;;;5.59;100.00
50065;BME280;64524;47.848;-122.338;2022-12-07T06:02:20;101959.59;;;5.58;100.00
50065;BME280;64524;47.848;-122.338;2022-12-07T06:04:49;101958.00;;;5.57;100.00
50065;BME280;64524;47.848;-122.338;2022-12-07T06:07:17;101958.80;;;5.56;100.00
50065;BME280;64524;47.848;-122.338;2022-12-07T06:09:46;101958.95;;;5.55;100.00
50065;BME280;64524;47.848;-122.338;2022-12-07T06:12:15;101961.78;;;5.54;100.00
50065;BME280;64524;47.848;-122.338;2022-12-07T06:15:02;101966.55;;;5.53;100.00
50065;BME280;64524;47.848;-122.338;2022-12-07T06:17:31;101965.48;;;5.52;100.00
50065;BME280;64524;47.848;-122.338;2022-12-07T06:20:00;101968.23;;;5.52;100.00
50065;BME280;64524;47.848;-122.338;2022-12-07T06:22:29;101970.17;;;5.53;100.00
50065;BME280;64524;47.848;-122.338;2022-12-07T06:24:57;101968.98;;;5.53;100.00
50065;BME280;64524;47.848;-122.338;2022-12-07T06:27:29;101968.99;;;5.53;100.00
50065;BME280;64524;47.848;-122.338;2022-12-07T06:29:58;101969.50;;;5.53;100.00
50065;BME280;64524;47.848;-122.338;2022-12-07T06:32:26;101970.75;;;5.54;100.00
50065;BME280;64524;47.848;-122.338;2022-12-07T06:34:55;101967.02;;;5.55;100.00
50065;BME280;64524;47.848;-122.338;2022-12-07T06:37:30;101966.37;;;5.56;100.00
50065;BME280;64524;47.848;-122.338;2022-12-07T06:39:58;101971.05;;;5.56;100.00
50065;BME280;64524;47.848;-122.338;2022-12-07T06:42:27;101967.90;;;5.55;100.00
50065;BME280;64524;47.848;-122.338;2022-12-07T06:44:55;101967.61;;;5.56;100.00
50065;BME280;64524;47.848;-122.338;2022-12-07T06:47:24;101966.27;;;5.57;100.00
50065;BME280;64524;47.848;-122.338;2022-12-07T06:50:13;101969.00;;;5.57;100.00
50065;BME280;64524;47.848;-122.338;2022-12-07T06:52:41;101967.95;;;5.56;100.00
50065;BME280;64524;47.848;-122.338;2022-12-07T06:55:10;101974.09;;;5.56;100.00
50065;BME280;64524;47.848;-122.338;2022-12-07T06:57:39;101973.74;;;5.55;100.00
50065;BME280;64524;47.848;-122.338;2022-12-07T07:00:08;101972.02;;;5.55;100.00
50065;BME280;64524;47.848;-122.338;2022-12-07T07:02:36;101974.38;;;5.54;100.00
50065;BME280;64524;47.848;-122.338;2022-12-07T07:05:05;101974.73;;;5.55;100.00
50065;BME280;64524;47.848;-122.338;2022-12-07T07:07:34;101973.23;;;5.56;100.00
50065;BME280;64524;47.848;-122.338;2022-12-07T07:10:18;101968.70;;;5.57;100.00
50065;BME280;64524;47.848;-122.338;2022-12-07T07:12:46;101967.32;;;5.58;100.00
50065;BME280;64524;47.848;-122.338;2022-12-07T07:15:21;101968.60;;;5.59;100.00
50065;BME280;64524;47.848;-122.338;2022-12-07T07:17:50;101970.89;;;5.60;100.00
50065;BME280;64524;47.848;-122.338;2022-12-07T07:20:18;101970.79;;;5.62;100.00
50065;BME280;64524;47.848;-122.338;2022-12-07T07:22:48;101974.63;;;5.63;100.00
50065;BME280;64524;47.848;-122.338;2022-12-07T07:25:16;101973.98;;;5.64;100.00
50065;BME280;64524;47.848;-122.338;2022-12-07T07:27:44;101975.66;;;5.66;100.00
50065;BME280;64524;47.848;-122.338;2022-12-07T07:30:13;101977.80;;;5.67;100.00
50065;BME280;64524;47.848;-122.338;2022-12-07T07:32:42;101978.54;;;5.69;100.00
50065;BME280;64524;47.848;-122.338;2022-12-07T07:35:10;101972.97;;;5.71;100.00
50065;BME280;64524;47.848;-122.338;2022-12-07T07:37:39;101972.05;;;5.73;100.00
50065;BME280;64524;47.848;-122.338;2022-12-07T07:40:09;101968.39;;;5.75;100.00
50065;BME280;64524;47.848;-122.338;2022-12-07T07:42:37;101967.46;;;5.77;100.00
50065;BME280;64524;47.848;-122.338;2022-12-07T07:45:06;101968.05;;;5.79;100.00
50065;BME280;64524;47.848;-122.338;2022-12-07T07:47:35;101966.20;;;5.80;100.00
50065;BME280;64524;47.848;-122.338;2022-12-07T07:50:04;101963.87;;;5.81;100.00
50065;BME280;64524;47.848;-122.338;2022-12-07T07:52:33;101967.92;;;5.83;100.00
50065;BME280;64524;47.848;-122.338;2022-12-07T07:55:02;101964.91;;;5.85;100.00
50065;BME280;64524;47.848;-122.338;2022-12-07T07:57:31;101965.35;;;5.86;100.00
50065;BME280;64524;47.848;-122.338;2022-12-07T07:59:59;101965.70;;;5.86;100.00
50065;BME280;64524;47.848;-122.338;2022-12-07T08:02:29;101962.52;;;5.88;100.00
50065;BME280;64524;47.848;-122.338;2022-12-07T08:04:58;101958.43;;;5.89;100.00
50065;BME280;64524;47.848;-122.338;2022-12-07T08:07:28;101958.67;;;5.90;100.00
50065;BME280;64524;47.848;-122.338;2022-12-07T08:09:56;101960.61;;;5.91;100.00
50065;BME280;64524;47.848;-122.338;2022-12-07T08:12:25;101963.73;;;5.92;100.00
50065;BME280;64524;47.848;-122.338;2022-12-07T08:14:54;101965.88;;;5.93;100.00
50065;BME280;64524;47.848;-122.338;2022-12-07T08:17:23;101967.73;;;5.95;100.00
50065;BME280;64524;47.848;-122.338;2022-12-07T08:19:51;101970.80;;;5.99;100.00
50065;BME280;64524;47.848;-122.338;2022-12-07T08:22:20;101972.04;;;5.99;100.00
50065;BME280;64524;47.848;-122.338;2022-12-07T08:24:49;101972.08;;;6.00;100.00
50065;BME280;64524;47.848;-122.338;2022-12-07T08:27:17;101966.98;;;6.01;100.00
50065;BME280;64524;47.848;-122.338;2022-12-07T08:29:46;101969.48;;;6.03;100.00
50065;BME280;64524;47.848;-122.338;2022-12-07T08:32:14;101964.07;;;6.05;100.00
50065;BME280;64524;47.848;-122.338;2022-12-07T08:34:43;101967.63;;;6.07;100.00
50065;BME280;64524;47.848;-122.338;2022-12-07T08:37:12;101965.88;;;6.10;100.00
50065;BME280;64524;47.848;-122.338;2022-12-07T08:39:40;101964.15;;;6.13;100.00
50065;BME280;64524;47.848;-122.338;2022-12-07T08:42:09;101964.67;;;6.17;100.00
50065;BME280;64524;47.848;-122.338;2022-12-07T08:44:37;101961.20;;;6.20;100.00
50065;BME280;64524;47.848;-122.338;2022-12-07T08:47:07;101960.64;;;6.23;100.00
50065;BME280;64524;47.848;-122.338;2022-12-07T08:49:44;101961.69;;;6.26;100.00
50065;BME280;64524;47.848;-122.338;2022-12-07T08:52:15;101958.73;;;6.29;100.00
50065;BME280;64524;47.848;-122.338;2022-12-07T08:54:44;101955.86;;;6.30;100.00
50065;BME280;64524;47.848;-122.338;2022-12-07T08:57:13;101953.60;;;6.29;100.00
50065;BME280;64524;47.848;-122.338;2022-12-07T08:59:42;101954.58;;;6.28;100.00
50065;BME280;64524;47.848;-122.338;2022-12-07T09:02:10;101950.17;;;6.26;100.00
50065;BME280;64524;47.848;-122.338;2022-12-07T09:04:39;101948.50;;;6.24;100.00
50065;BME280;64524;47.848;-122.338;2022-12-07T09:07:07;101943.31;;;6.24;100.00
50065;BME280;64524;47.848;-122.338;2022-12-07T09:09:37;101944.75;;;6.25;100.00
50065;BME280;64524;47.848;-122.338;2022-12-07T09:12:06;101942.88;;;6.25;100.00
50065;BME280;64524;47.848;-122.338;2022-12-07T09:14:35;101942.14;;;6.24;100.00
50065;BME280;64524;47.848;-122.338;2022-12-07T09:17:07;101938.20;;;6.21;100.00
50065;BME280;64524;47.848;-122.338;2022-12-07T09:19:37;101942.14;;;6.21;100.00
50065;BME280;64524;47.848;-122.338;2022-12-07T09:22:05;101938.54;;;6.21;100.00
50065;BME280;64524;47.848;-122.338;2022-12-07T09:24:34;101935.20;;;6.19;100.00
50065;BME280;64524;47.848;-122.338;2022-12-07T09:27:03;101933.06;;;6.18;100.00
50065;BME280;64524;47.848;-122.338;2022-12-07T09:29:32;101929.95;;;6.18;100.00
50065;BME280;64524;47.848;-122.338;2022-12-07T09:32:00;101931.14;;;6.17;100.00
50065;BME280;64524;47.848;-122.338;2022-12-07T09:34:37;101930.72;;;6.15;100.00
50065;BME280;64524;47.848;-122.338;2022-12-07T09:37:06;101932.75;;;6.15;100.00
50065;BME280;64524;47.848;-122.338;2022-12-07T09:39:38;101931.98;;;6.13;100.00
50065;BME280;64524;47.848;-122.338;2022-12-07T09:42:37;101929.66;;;6.12;100.00
50065;BME280;64524;47.848;-122.338;2022-12-07T09:45:15;101926.97;;;6.09;100.00
50065;BME280;64524;47.848;-122.338;2022-12-07T09:47:45;101927.41;;;6.08;100.00
50065;BME280;64524;47.848;-122.338;2022-12-07T09:50:20;101929.36;;;6.05;100.00
50065;BME280;64524;47.848;-122.338;2022-12-07T09:52:50;101932.77;;;6.05;100.00
50065;BME280;64524;47.848;-122.338;2022-12-07T09:55:24;101933.13;;;6.05;100.00
50065;BME280;64524;47.848;-122.338;2022-12-07T09:57:53;101931.71;;;6.04;100.00
50065;BME280;64524;47.848;-122.338;2022-12-07T10:00:23;101933.33;;;6.06;100.00
50065;BME280;64524;47.848;-122.338;2022-12-07T10:02:56;101929.34;;;6.05;100.00
50065;BME280;64524;47.848;-122.338;2022-12-07T10:05:51;101929.86;;;6.05;100.00
50065;BME280;64524;47.848;-122.338;2022-12-07T10:08:21;101933.52;;;6.06;100.00
50065;BME280;64524;47.848;-122.338;2022-12-07T10:10:54;101935.29;;;6.07;100.00
50065;BME280;64524;47.848;-122.338;2022-12-07T10:13:49;101934.23;;;6.07;100.00
50065;BME280;64524;47.848;-122.338;2022-12-07T10:18:54;101933.97;;;6.05;100.00
50065;BME280;64524;47.848;-122.338;2022-12-07T10:21:26;101938.39;;;6.04;100.00
50065;BME280;64524;47.848;-122.338;2022-12-07T10:29:34;101937.02;;;6.00;100.00
50065;BME280;64524;47.848;-122.338;2022-12-07T10:32:08;101938.52;;;5.99;100.00
50065;BME280;64524;47.848;-122.338;2022-12-07T10:37:47;101936.32;;;5.97;100.00
50065;BME280;64524;47.848;-122.338;2022-12-07T10:40:36;101936.52;;;5.94;100.00
50065;BME280;64524;47.848;-122.338;2022-12-07T10:54:18;101935.16;;;5.91;100.00
50065;BME280;64524;47.848;-122.338;2022-12-07T11:10:35;101924.55;;;5.85;100.00
50065;BME280;64524;47.848;-122.338;2022-12-07T11:24:19;101913.80;;;5.81;100.00
50065;BME280;64524;47.848;-122.338;2022-12-07T11:27:09;101910.88;;;5.80;100.00
50065;BME280;64524;47.848;-122.338;2022-12-07T11:37:35;101906.09;;;5.84;100.00
50065;BME280;64524;47.848;-122.338;2022-12-07T11:40:30;101908.44;;;5.83;100.00
50065;BME280;64524;47.848;-122.338;2022-12-07T11:46:01;101899.99;;;5.80;100.00
50065;BME280;64524;47.848;-122.338;2022-12-07T11:51:10;101903.82;;;5.76;100.00
50065;BME280;64524;47.848;-122.338;2022-12-07T11:53:46;101902.98;;;5.74;100.00
50065;BME280;64524;47.848;-122.338;2022-12-07T11:56:17;101906.30;;;5.71;100.00
50065;BME280;64524;47.848;-122.338;2022-12-07T12:06:44;101902.03;;;5.65;100.00
50065;BME280;64524;47.848;-122.338;2022-12-07T12:09:14;101902.45;;;5.64;100.00
50065;BME280;64524;47.848;-122.338;2022-12-07T12:12:44;101898.67;;;5.64;100.00
50065;BME280;64524;47.848;-122.338;2022-12-07T12:24:32;101898.52;;;5.60;100.00
50065;BME280;64524;47.848;-122.338;2022-12-07T12:26:36;101897.36;;;5.61;100.00
50065;BME280;64524;47.848;-122.338;2022-12-07T12:29:06;101898.40;;;5.62;100.00
50065;BME280;64524;47.848;-122.338;2022-12-07T12:32:31;101899.16;;;5.63;100.00
50065;BME280;64524;47.848;-122.338;2022-12-07T12:35:20;101893.24;;;5.64;100.00
50065;BME280;64524;47.848;-122.338;2022-12-07T12:37:50;101890.53;;;5.65;100.00
50065;BME280;64524;47.848;-122.338;2022-12-07T12:42:56;101884.79;;;5.67;100.00
50065;BME280;64524;47.848;-122.338;2022-12-07T12:45:27;101883.33;;;5.69;100.00
50065;BME280;64524;47.848;-122.338;2022-12-07T12:50:37;101879.27;;;5.71;100.00
50065;BME280;64524;47.848;-122.338;2022-12-07T12:53:24;101882.58;;;5.72;100.00
50065;BME280;64524;47.848;-122.338;2022-12-07T12:58:42;101881.69;;;5.74;100.00
50065;BME280;64524;47.848;-122.338;2022-12-07T13:04:03;101879.14;;;5.75;100.00
50065;BME280;64524;47.848;-122.338;2022-12-07T13:06:42;101880.02;;;5.75;100.00
50065;BME280;64524;47.848;-122.338;2022-12-07T13:09:26;101881.55;;;5.75;100.00
50065;BME280;64524;47.848;-122.338;2022-12-07T13:12:01;101876.16;;;5.74;100.00
50065;BME280;64524;47.848;-122.338;2022-12-07T13:14:58;101880.88;;;5.75;100.00
50065;BME280;64524;47.848;-122.338;2022-12-07T13:20:04;101873.94;;;5.77;100.00
50065;BME280;64524;47.848;-122.338;2022-12-07T13:22:43;101869.57;;;5.80;100.00
50065;BME280;64524;47.848;-122.338;2022-12-07T13:25:18;101868.24;;;5.81;100.00
50065;BME280;64524;47.848;-122.338;2022-12-07T13:28:14;101868.45;;;5.81;100.00
50065;BME280;64524;47.848;-122.338;2022-12-07T13:30:57;101872.01;;;5.80;100.00
50065;BME280;64524;47.848;-122.338;2022-12-07T13:33:28;101868.39;;;5.80;100.00
50065;BME280;64524;47.848;-122.338;2022-12-07T13:35:57;101867.34;;;5.80;100.00
50065;BME280;64524;47.848;-122.338;2022-12-07T13:38:37;101865.98;;;5.80;100.00
50065;BME280;64524;47.848;-122.338;2022-12-07T13:41:16;101870.13;;;5.80;100.00
50065;BME280;64524;47.848;-122.338;2022-12-07T13:43:47;101872.02;;;5.81;100.00
50065;BME280;64524;47.848;-122.338;2022-12-07T13:46:19;101869.42;;;5.80;100.00
50065;BME280;64524;47.848;-122.338;2022-12-07T13:48:50;101869.63;;;5.81;100.00
50065;BME280;64524;47.848;-122.338;2022-12-07T13:51:25;101871.27;;;5.83;100.00
50065;BME280;64524;47.848;-122.338;2022-12-07T13:54:06;101874.45;;;5.84;100.00
50065;BME280;64524;47.848;-122.338;2022-12-07T13:56:37;101873.48;;;5.86;100.00
50065;BME280;64524;47.848;-122.338;2022-12-07T13:59:19;101866.30;;;5.86;100.00
50065;BME280;64524;47.848;-122.338;2022-12-07T14:01:50;101861.08;;;5.89;100.00
50065;BME280;64524;47.848;-122.338;2022-12-07T14:04:36;101862.21;;;5.91;100.00
50065;BME280;64524;47.848;-122.338;2022-12-07T14:09:59;101860.72;;;5.95;100.00
50065;BME280;64524;47.848;-122.338;2022-12-07T14:12:29;101860.95;;;5.96;100.00
50065;BME280;64524;47.848;-122.338;2022-12-07T14:14:59;101861.70;;;5.97;100.00
50065;BME280;64524;47.848;-122.338;2022-12-07T14:17:29;101860.87;;;5.98;100.00
50065;BME280;64524;47.848;-122.338;2022-12-07T14:19:59;101855.81;;;6.00;100.00
50065;BME280;64524;47.848;-122.338;2022-12-07T14:22:36;101856.91;;;6.02;100.00
50065;BME280;64524;47.848;-122.338;2022-12-07T14:25:17;101854.67;;;6.01;100.00
50065;BME280;64524;47.848;-122.338;2022-12-07T14:27:57;101850.13;;;6.00;100.00
50065;BME280;64524;47.848;-122.338;2022-12-07T14:30:31;101851.14;;;6.00;100.00
50065;BME280;64524;47.848;-122.338;2022-12-07T14:33:02;101852.67;;;5.99;100.00
50065;BME280;64524;47.848;-122.338;2022-12-07T14:35:32;101852.27;;;5.98;100.00
50065;BME280;64524;47.848;-122.338;2022-12-07T14:38:00;101853.09;;;5.97;100.00
50065;BME280;64524;47.848;-122.338;2022-12-07T14:40:29;101856.64;;;5.96;100.00
50065;BME280;64524;47.848;-122.338;2022-12-07T14:43:10;101856.14;;;5.93;100.00
50065;BME280;64524;47.848;-122.338;2022-12-07T14:45:40;101856.02;;;5.90;100.00
50065;BME280;64524;47.848;-122.338;2022-12-07T14:48:32;101855.36;;;5.88;100.00
50065;BME280;64524;47.848;-122.338;2022-12-07T14:51:20;101851.87;;;5.87;100.00
50065;BME280;64524;47.848;-122.338;2022-12-07T14:54:17;101851.69;;;5.87;100.00
50065;BME280;64524;47.848;-122.338;2022-12-07T14:56:46;101855.11;;;5.86;100.00
50065;BME280;64524;47.848;-122.338;2022-12-07T14:59:18;101852.51;;;5.86;100.00
50065;BME280;64524;47.848;-122.338;2022-12-07T15:01:47;101852.09;;;5.84;100.00
50065;BME280;64524;47.848;-122.338;2022-12-07T15:04:16;101852.71;;;5.83;100.00
50065;BME280;64524;47.848;-122.338;2022-12-07T15:06:58;101850.46;;;5.83;100.00
50065;BME280;64524;47.848;-122.338;2022-12-07T15:09:27;101849.75;;;5.82;100.00